Time;durP1;ratioP1;P1;durP2;ratioP2;P2;SDS_P1;SDS_P2;PMS_P1;PMS_P2;Temp;Humidity;BMP_temperature;BMP_pressure;BME280_temperature;BME280_humidity;BME280_pressure;Samples;Min_cycle;Max_cycle;Signal;HPM_P1;HPM_P2
2023/04/28 00:00:18;;;;;;;13.90;12.70;;;11.00;99.90;;;;;;6188271;23;20036;-94
2023/04/28 00:02:47;;;;;;;13.73;12.52;;;10.90;99.90;;;;;;6137195;23;20493;-94
2023/04/28 00:05:16;;;;;;;13.43;12.30;;;10.80;99.90;;;;;;6137221;23;20036;-94
2023/04/28 00:07:45;;;;;;;13.85;12.57;;;10.80;99.90;;;;;;6136620;23;20013;-94
2023/04/28 00:10:35;;;;;;;14.32;12.90;;;10.60;99.90;;;;;;6276519;22;20027;-94
2023/04/28 00:13:07;;;;;;;13.73;12.43;;;10.60;99.90;;;;;;6252066;22;20012;-94
2023/04/28 00:15:35;;;;;;;15.45;12.48;;;10.60;99.90;;;;;;6252409;22;20018;-94
2023/04/28 00:21:19;;;;;;;12.60;11.55;;;10.50;99.90;;;;;;6157588;23;20324;-94
2023/04/28 00:23:58;;;;;;;14.40;11.75;;;10.70;99.90;;;;;;6158290;23;20085;-94
2023/04/28 00:26:58;;;;;;;12.40;11.40;;;10.80;99.90;;;;;;6151584;23;20541;-95
2023/04/28 00:29:33;;;;;;;13.98;11.57;;;10.80;99.90;;;;;;6155942;23;20101;-94
2023/04/28 00:32:02;;;;;;;;;;;10.90;99.90;;;;;;6154782;23;20009;-93
2023/04/28 00:34:41;;;;;;;12.68;11.57;;;11.00;99.90;;;;;;6132875;23;19901;-94
2023/04/28 00:37:08;;;;;;;12.32;11.43;;;11.00;99.90;;;;;;6155105;23;20009;-94
2023/04/28 00:39:45;;;;;;;12.73;11.57;;;11.00;99.90;;;;;;6154809;23;20016;-94
2023/04/28 00:42:28;;;;;;;;;;;;;;;;;;;;;
2023/04/28 00:45:01;;;;;;;13.48;12.32;;;11.00;99.90;;;;;;6155676;23;20100;-94
2023/04/28 00:47:42;;;;;;;16.10;12.80;;;11.00;99.90;;;;;;6155144;23;20009;-94
2023/04/28 00:50:15;;;;;;;12.98;12.02;;;11.00;99.90;;;;;;6154990;23;20041;-95
2023/04/28 00:52:54;;;;;;;13.85;12.43;;;11.10;99.90;;;;;;6155049;23;20013;-95
2023/04/28 00:55:24;;;;;;;13.68;12.50;;;11.20;99.90;;;;;;6155134;23;20005;-94
2023/04/28 00:57:51;;;;;;;13.55;12.50;;;11.30;99.90;;;;;;6195647;23;20015;-94
2023/04/28 01:00:42;;;;;;;13.98;12.77;;;11.40;99.90;;;;;;6247018;22;20095;-94
2023/04/28 01:03:24;;;;;;;13.95;12.85;;;11.50;99.90;;;;;;6249310;22;20081;-94
2023/04/28 01:06:02;;;;;;;13.85;12.82;;;11.70;99.90;;;;;;6240861;23;20058;-94
2023/04/28 01:08:42;;;;;;;15.43;14.27;;;11.80;99.90;;;;;;6247598;22;20004;-94
2023/04/28 01:11:19;;;;;;;14.85;13.70;;;11.80;99.90;;;;;;6223829;23;20091;-95
2023/04/28 01:14:07;;;;;;;15.48;14.23;;;11.80;99.90;;;;;;6222123;23;20061;-94
2023/04/28 01:16:46;;;;;;;15.68;14.48;;;11.80;99.90;;;;;;6229087;23;20008;-93
2023/04/28 01:19:29;;;;;;;16.27;14.90;;;11.80;99.90;;;;;;6230818;23;20448;-95
2023/04/28 01:22:23;;;;;;;15.73;14.52;;;11.70;99.90;;;;;;6244419;22;20031;-93
2023/04/28 01:25:34;;;;;;;17.77;15.50;;;11.70;99.90;;;;;;6183182;23;20020;-93
2023/04/28 01:28:19;;;;;;;16.05;14.80;;;11.70;99.90;;;;;;6160815;23;20000;-95
2023/04/28 01:31:21;;;;;;;16.20;15.00;;;11.60;99.90;;;;;;6159227;23;19993;-95
2023/04/28 01:33:54;;;;;;;16.58;15.18;;;11.60;99.90;;;;;;6157870;23;19994;-95
2023/04/28 01:36:26;;;;;;;16.00;14.90;;;11.50;99.90;;;;;;6158761;23;20004;-95
2023/04/28 01:39:14;;;;;;;16.20;14.88;;;11.40;99.90;;;;;;6154627;23;20010;-94
2023/04/28 01:42:07;;;;;;;15.95;14.80;;;11.30;99.90;;;;;;6133481;23;20096;-94
2023/04/28 01:44:48;;;;;;;16.02;14.77;;;11.10;99.90;;;;;;6132372;23;20006;-94
2023/04/28 01:47:24;;;;;;;15.20;14.10;;;11.00;99.90;;;;;;6130324;23;20038;-95
2023/04/28 01:49:54;;;;;;;15.55;14.25;;;11.00;99.90;;;;;;6130494;23;20092;-93
2023/04/28 01:52:26;;;;;;;16.58;14.90;;;10.90;99.90;;;;;;6129918;23;20010;-94
2023/04/28 01:55:10;;;;;;;15.50;14.18;;;10.90;99.90;;;;;;6132196;23;20128;-94
2023/04/28 01:57:46;;;;;;;15.75;14.52;;;10.90;99.90;;;;;;6132308;23;20038;-95
2023/04/28 02:00:17;;;;;;;15.10;13.93;;;10.90;99.90;;;;;;6130173;23;20398;-95
2023/04/28 02:03:06;;;;;;;15.05;13.85;;;10.90;99.90;;;;;;6212534;23;20005;-93
2023/04/28 02:05:45;;;;;;;14.52;13.43;;;10.90;99.90;;;;;;6221386;23;20008;-93
2023/04/28 02:08:15;;;;;;;14.65;13.57;;;10.90;99.90;;;;;;6220930;23;20429;-94
2023/04/28 02:10:46;;;;;;;14.75;13.40;;;10.90;99.90;;;;;;6244002;23;20024;-93
2023/04/28 02:13:20;;;;;;;13.90;12.90;;;10.90;99.90;;;;;;6247809;22;20091;-94
2023/04/28 02:16:12;;;;;;;14.40;13.40;;;10.90;99.90;;;;;;6247304;22;20087;-94
2023/04/28 02:19:00;;;;;;;15.07;14.02;;;11.00;99.90;;;;;;6245908;22;20008;-93
2023/04/28 02:21:43;;;;;;;14.48;13.57;;;11.10;99.90;;;;;;6247908;22;20095;-94
2023/04/28 02:24:46;;;;;;;15.30;14.30;;;11.10;99.90;;;;;;6246111;22;20099;-94
2023/04/28 02:27:24;;;;;;;14.82;13.82;;;11.20;99.90;;;;;;6245226;22;20008;-94
2023/04/28 02:30:23;;;;;;;15.20;13.98;;;11.20;99.90;;;;;;6246456;22;20019;-94
2023/04/28 02:33:32;;;;;;;16.05;14.75;;;11.30;99.90;;;;;;6247823;22;20008;-94
2023/04/28 02:36:28;;;;;;;15.07;14.00;;;11.30;99.90;;;;;;6247810;22;20015;-95
2023/04/28 02:39:02;;;;;;;15.55;14.43;;;11.30;99.90;;;;;;6246048;22;20008;-95
2023/04/28 02:41:33;;;;;;;14.45;13.65;;;11.30;99.90;;;;;;6245721;22;20078;-93
2023/04/28 02:44:17;;;;;;;14.80;13.80;;;11.30;99.90;;;;;;6245888;22;20050;-94
2023/04/28 02:46:50;;;;;;;15.50;14.18;;;11.30;99.90;;;;;;6247588;22;20016;-94
2023/04/28 02:49:20;;;;;;;15.30;14.35;;;11.30;99.90;;;;;;6247610;22;20047;-94
2023/04/28 02:51:52;;;;;;;15.20;14.13;;;11.30;99.90;;;;;;6247085;22;20421;-94
2023/04/28 02:54:33;;;;;;;15.55;14.45;;;11.30;99.90;;;;;;6247352;22;20012;-95
2023/04/28 02:57:32;;;;;;;16.85;14.93;;;11.30;99.90;;;;;;6247824;22;20475;-93
2023/04/28 03:00:35;;;;;;;16.00;14.65;;;11.30;99.90;;;;;;6248163;23;20098;-94
2023/04/28 03:03:08;;;;;;;15.32;14.43;;;11.30;99.90;;;;;;6247224;22;20062;-94
2023/04/28 03:05:47;;;;;;;15.52;14.45;;;11.20;99.90;;;;;;6246158;22;20016;-94
2023/04/28 03:08:19;;;;;;;14.93;13.90;;;11.20;99.90;;;;;;6250131;22;20012;-95
2023/04/28 03:10:47;;;;;;;15.48;14.32;;;11.20;99.90;;;;;;6247116;22;20259;-94
2023/04/28 03:13:31;;;;;;;14.90;14.00;;;11.20;99.90;;;;;;6247218;23;20004;-94
2023/04/28 03:15:59;;;;;;;15.25;14.20;;;11.20;99.90;;;;;;6247421;22;20169;-93
2023/04/28 03:18:28;;;;;;;14.73;13.77;;;11.20;99.90;;;;;;6247983;22;20008;-94
2023/04/28 03:21:01;;;;;;;15.05;13.90;;;11.20;99.90;;;;;;6247913;22;20044;-94
2023/04/28 03:23:43;;;;;;;15.13;14.02;;;11.20;99.90;;;;;;6248236;22;20008;-95
2023/04/28 03:26:17;;;;;;;15.32;14.25;;;11.20;99.90;;;;;;6244625;22;20134;-94
2023/04/28 03:29:02;;;;;;;14.90;13.77;;;11.20;99.90;;;;;;6222774;23;20452;-95
2023/04/28 03:31:40;;;;;;;14.38;13.23;;;11.20;99.90;;;;;;6248469;22;20095;-94
2023/04/28 03:34:11;;;;;;;14.20;13.20;;;11.20;99.90;;;;;;6248652;22;20122;-95
2023/04/28 03:36:55;;;;;;;13.52;12.73;;;11.20;99.90;;;;;;6249575;22;20004;-93
2023/04/28 03:39:27;;;;;;;13.68;12.57;;;11.20;99.90;;;;;;6222871;23;20008;-93
2023/04/28 03:42:15;;;;;;;;;;;;;;;;;;;;;
2023/04/28 03:45:04;;;;;;;12.80;11.80;;;11.20;99.90;;;;;;6248343;22;20008;-94
2023/04/28 03:47:34;;;;;;;13.32;11.55;;;11.20;99.90;;;;;;6247817;22;20008;-95
2023/04/28 03:50:01;;;;;;;12.82;11.50;;;11.30;99.90;;;;;;6247120;23;20008;-94
2023/04/28 03:52:45;;;;;;;12.35;11.20;;;11.30;99.90;;;;;;6247987;22;20000;-94
2023/04/28 03:55:21;;;;;;;11.93;10.98;;;11.30;99.90;;;;;;6249414;22;20433;-94
2023/04/28 03:57:52;;;;;;;11.75;10.95;;;11.30;99.90;;;;;;6249035;22;20442;-93
2023/04/28 04:03:36;;;;;;;10.98;10.10;;;11.30;99.90;;;;;;6251284;23;20062;-94
2023/04/28 04:06:23;;;;;;;11.27;10.35;;;11.30;99.90;;;;;;6250088;22;20311;-94
2023/04/28 04:09:31;;;;;;;11.20;10.40;;;11.30;99.90;;;;;;6253429;23;20095;-94
2023/04/28 04:12:36;;;;;;;11.60;10.80;;;11.10;99.90;;;;;;6226132;23;20090;-94
2023/04/28 04:18:43;;;;;;;11.32;10.38;;;11.00;99.90;;;;;;6148161;23;20394;-95
2023/04/28 04:21:41;;;;;;;11.52;10.50;;;11.00;99.90;;;;;;6135879;23;20494;-94
2023/04/28 04:24:33;;;;;;;11.55;10.63;;;11.00;99.90;;;;;;6110678;23;20441;-94
2023/04/28 04:27:10;;;;;;;11.20;10.30;;;11.10;99.90;;;;;;6107580;23;20016;-94
2023/04/28 04:29:43;;;;;;;11.25;10.27;;;11.10;99.90;;;;;;6131373;23;20432;-93
2023/04/28 04:32:14;;;;;;;11.55;10.70;;;11.10;99.90;;;;;;6113564;23;20005;-94
2023/04/28 04:34:56;;;;;;;11.05;10.07;;;11.20;99.90;;;;;;6135075;23;20018;-94
2023/04/28 04:37:57;;;;;;;11.45;10.63;;;11.30;99.90;;;;;;6132315;23;20005;-94
2023/04/28 04:40:42;;;;;;;11.20;10.30;;;11.40;99.90;;;;;;6154775;23;20017;-93
2023/04/28 04:43:15;;;;;;;11.70;10.60;;;11.50;99.90;;;;;;6106450;23;20443;-94
2023/04/28 04:46:46;;;;;;;11.48;10.40;;;11.70;99.90;;;;;;6175589;23;20485;-94
2023/04/28 04:49:41;;;;;;;11.55;10.38;;;12.20;99.90;;;;;;6164331;23;20039;-95
2023/04/28 04:52:29;;;;;;;12.10;10.80;;;12.50;99.90;;;;;;6219917;23;20007;-95
2023/04/28 04:55:49;;;;;;;;;;;;;;;;;;;;;
2023/04/28 04:59:11;;;;;;;29.25;14.00;;;13.70;99.90;;;;;;6142321;23;20064;-94
2023/04/28 05:02:44;;;;;;;15.38;14.20;;;15.60;99.90;;;;;;6029979;23;20350;-94
2023/04/28 05:20:33;;;;;;;24.67;18.85;;;19.60;99.90;;;;;;6039715;23;20033;-95
2023/04/28 05:23:32;;;;;;;21.48;19.60;;;19.80;99.90;;;;;;6039955;23;20094;-93
2023/04/28 05:26:42;;;;;;;21.02;19.17;;;20.60;99.90;;;;;;6041019;23;20015;-94
2023/04/28 05:29:33;;;;;;;21.95;19.85;;;20.90;99.90;;;;;;5965791;23;20068;-94
2023/04/28 05:31:59;;;;;;;33.38;20.20;;;21.50;99.90;;;;;;6019561;23;20445;-92
2023/04/28 05:34:26;;;;;;;21.95;19.98;;;21.90;99.90;;;;;;6016112;23;20038;-93
2023/04/28 05:37:00;;;;;;;20.95;19.25;;;22.20;99.90;;;;;;6017772;23;20007;-94
2023/04/28 05:39:40;;;;;;;20.77;19.10;;;21.90;99.90;;;;;;6043063;23;20019;-93
2023/04/28 05:42:07;;;;;;;20.80;19.17;;;21.80;99.90;;;;;;6020105;23;20090;-94
2023/04/28 05:44:34;;;;;;;19.40;18.00;;;21.50;99.90;;;;;;6024940;23;20006;-93
2023/04/28 05:50:31;;;;;;;19.90;18.40;;;21.40;99.90;;;;;;6063510;22;20156;-94
2023/04/28 07:08:35;;;;;;;23.35;21.92;;;22.30;99.90;;;;;;6282502;22;20404;-90
2023/04/28 07:11:05;;;;;;;23.77;22.27;;;22.10;99.90;;;;;;6246917;23;20016;-91
2023/04/28 07:13:32;;;;;;;24.63;23.00;;;22.80;99.90;;;;;;6252066;22;20015;-90
2023/04/28 07:15:58;;;;;;;26.02;24.10;;;22.80;99.90;;;;;;6252650;22;20003;-91
2023/04/28 10:02:52;;;;;;;25.63;23.77;;;21.40;97.10;;;;;;6276688;22;20054;-94
2023/04/28 10:05:45;;;;;;;26.83;24.80;;;21.10;96.20;;;;;;6231477;22;20493;-95
2023/04/28 10:15:46;;;;;;;25.75;23.95;;;21.50;96.40;;;;;;6258241;23;20035;-94
2023/04/28 10:18:35;;;;;;;26.08;24.13;;;21.60;97.20;;;;;;6231618;23;20040;-95
2023/04/28 10:56:00;;;;;;;25.90;24.33;;;21.50;95.20;;;;;;6259622;22;20077;-92
2023/04/28 10:58:41;;;;;;;25.08;23.52;;;21.50;96.90;;;;;;6229556;22;20042;-89
2023/04/28 11:01:23;;;;;;;25.42;23.83;;;21.70;97.70;;;;;;6252296;22;20464;-88
2023/04/28 11:04:03;;;;;;;25.75;24.15;;;21.80;96.70;;;;;;6221313;23;20008;-81
2023/04/28 11:06:36;;;;;;;26.77;24.70;;;21.70;95.80;;;;;;6246267;23;20004;-80
2023/04/28 11:09:14;;;;;;;26.05;24.45;;;21.70;96.00;;;;;;6247653;23;20055;-80
2023/04/28 11:11:59;;;;;;;25.10;23.52;;;21.40;96.10;;;;;;6247646;23;20483;-80
2023/04/28 11:14:49;;;;;;;25.10;23.50;;;21.50;96.20;;;;;;6247507;23;20000;-81
2023/04/28 11:17:18;;;;;;;25.35;23.52;;;21.90;96.60;;;;;;6126058;23;20037;-83
2023/04/28 11:19:47;;;;;;;25.08;23.35;;;21.70;96.50;;;;;;6125025;23;20014;-85
2023/04/28 11:22:19;;;;;;;25.30;23.80;;;21.90;96.00;;;;;;6125241;23;20009;-83
2023/04/28 11:25:14;;;;;;;25.73;24.13;;;21.90;95.50;;;;;;6125531;23;20033;-83
2023/04/28 11:27:41;;;;;;;25.48;23.90;;;21.80;95.50;;;;;;6038802;23;20015;-82
2023/04/28 11:30:24;;;;;;;26.17;24.30;;;21.60;95.80;;;;;;6014487;23;20007;-82
2023/04/28 11:32:50;;;;;;;25.92;24.33;;;21.80;95.50;;;;;;6038309;23;20007;-82
2023/04/28 11:35:17;;;;;;;26.40;24.50;;;21.90;96.10;;;;;;6014688;23;20070;-83
2023/04/28 11:37:44;;;;;;;26.52;24.88;;;22.10;94.80;;;;;;6038366;23;20011;-83
2023/04/28 11:40:12;;;;;;;25.63;24.13;;;22.30;95.10;;;;;;6039603;23;20477;-81
2023/04/28 11:42:49;;;;;;;26.33;24.73;;;22.40;94.40;;;;;;6014928;23;20059;-82
2023/04/28 11:45:17;;;;;;;26.15;24.27;;;22.30;95.10;;;;;;6014639;23;20011;-82
2023/04/28 11:47:44;;;;;;;25.75;24.20;;;22.50;95.40;;;;;;6014780;23;20011;-82
2023/04/28 11:50:13;;;;;;;25.60;24.10;;;22.60;94.50;;;;;;6038174;23;20090;-83
2023/04/28 11:52:51;;;;;;;25.83;24.23;;;22.20;93.80;;;;;;6038094;23;20039;-83
2023/04/28 11:55:18;;;;;;;25.15;23.67;;;21.80;94.10;;;;;;6120280;23;20530;-87
2023/04/28 11:57:44;;;;;;;26.08;24.45;;;21.80;96.00;;;;;;6172303;23;20458;-88
2023/04/28 12:00:20;;;;;;;26.55;24.25;;;22.00;98.30;;;;;;6215373;23;20016;-84
2023/04/28 12:02:47;;;;;;;24.92;23.42;;;22.20;95.00;;;;;;6216731;23;20012;-85
2023/04/28 12:05:13;;;;;;;25.67;24.13;;;22.00;94.70;;;;;;6215657;23;20005;-84
2023/04/28 12:07:44;;;;;;;25.58;24.00;;;21.80;94.50;;;;;;6215484;23;20004;-83
2023/04/28 12:10:15;;;;;;;25.70;24.10;;;21.90;94.40;;;;;;6215441;23;20012;-84
2023/04/28 12:12:42;;;;;;;25.33;24.00;;;22.10;94.10;;;;;;6240564;23;20008;-86
2023/04/28 12:15:09;;;;;;;27.00;25.10;;;22.10;94.10;;;;;;6241098;23;20018;-84
2023/04/28 12:17:45;;;;;;;26.38;24.88;;;22.50;94.30;;;;;;6214802;23;20460;-83
2023/04/28 12:20:35;;;;;;;26.13;24.63;;;22.60;93.80;;;;;;6214879;23;20013;-87
2023/04/28 12:23:02;;;;;;;25.55;24.08;;;22.50;94.60;;;;;;6215782;23;20063;-88
2023/04/28 12:25:29;;;;;;;25.77;24.30;;;22.30;93.70;;;;;;6215782;23;20012;-85
2023/04/28 12:28:06;;;;;;;26.20;24.45;;;22.20;93.40;;;;;;6215909;23;20012;-85
2023/04/28 12:30:39;;;;;;;25.42;23.83;;;22.00;93.80;;;;;;6241336;23;20131;-86
2023/04/28 12:33:20;;;;;;;26.20;24.60;;;22.20;93.80;;;;;;6241310;22;20059;-86
2023/04/28 12:35:47;;;;;;;25.90;24.40;;;22.00;92.70;;;;;;6215592;23;20013;-83
2023/04/28 12:38:15;;;;;;;25.58;24.08;;;21.70;93.50;;;;;;6215469;23;20083;-84
2023/04/28 12:40:42;;;;;;;26.33;24.73;;;21.90;93.30;;;;;;6215495;23;20019;-84
2023/04/28 12:43:09;;;;;;;26.30;24.65;;;21.80;93.20;;;;;;6215575;23;20087;-85
2023/04/28 12:45:35;;;;;;;26.50;24.88;;;21.70;93.30;;;;;;6215202;23;20005;-83
2023/04/28 12:48:02;;;;;;;26.70;25.00;;;21.80;93.50;;;;;;6215190;23;20016;-84
2023/04/28 12:50:31;;;;;;;25.58;24.08;;;21.90;93.60;;;;;;6215120;23;20082;-84
2023/04/28 12:52:59;;;;;;;25.83;24.25;;;21.90;93.60;;;;;;6240841;23;20004;-89
2023/04/28 12:55:26;;;;;;;25.88;24.45;;;21.90;93.30;;;;;;6229187;22;20016;-83
2023/04/28 12:57:52;;;;;;;26.30;24.55;;;22.00;93.00;;;;;;6245056;23;20015;-83
2023/04/28 13:00:22;;;;;;;26.35;24.85;;;22.20;93.10;;;;;;6244906;23;20042;-85
2023/04/28 13:02:49;;;;;;;26.23;24.52;;;22.20;92.40;;;;;;6219844;23;20012;-83
2023/04/28 13:05:15;;;;;;;25.95;24.45;;;22.50;92.80;;;;;;6246586;23;20003;-84
2023/04/28 13:07:42;;;;;;;26.38;24.88;;;22.60;92.10;;;;;;6244802;23;20075;-85
2023/04/28 13:10:08;;;;;;;26.67;24.90;;;22.60;91.80;;;;;;6244761;23;20011;-84
2023/04/28 13:12:35;;;;;;;26.92;25.35;;;22.60;92.40;;;;;;6219362;23;20008;-84
2023/04/28 13:15:02;;;;;;;28.35;26.50;;;22.50;92.60;;;;;;6245339;23;20019;-86
2023/04/28 13:17:29;;;;;;;27.98;25.90;;;22.10;92.70;;;;;;6245697;23;20039;-86
2023/04/28 13:19:55;;;;;;;27.52;25.73;;;22.10;93.20;;;;;;6245411;23;20073;-85
2023/04/28 13:22:22;;;;;;;26.38;24.52;;;22.20;93.20;;;;;;6246039;23;20004;-87
2023/04/28 13:24:49;;;;;;;25.73;24.20;;;22.30;92.90;;;;;;6245991;23;20491;-85
2023/04/28 13:27:15;;;;;;;26.50;24.80;;;22.00;92.70;;;;;;6246335;23;20015;-85
2023/04/28 13:29:42;;;;;;;25.92;24.35;;;21.90;92.20;;;;;;6220404;23;20014;-86
2023/04/28 13:32:08;;;;;;;25.23;23.92;;;21.90;92.20;;;;;;6245356;23;20346;-86
2023/04/28 13:34:36;;;;;;;25.95;24.55;;;21.80;92.90;;;;;;6245566;23;20430;-85
2023/04/28 13:37:03;;;;;;;25.60;24.20;;;21.90;92.50;;;;;;6245307;23;20004;-86
2023/04/28 13:39:30;;;;;;;25.38;24.00;;;22.10;92.40;;;;;;6245829;23;20008;-85
2023/04/28 13:41:57;;;;;;;24.90;23.60;;;22.00;92.30;;;;;;6220430;23;20017;-86
2023/04/28 13:44:24;;;;;;;26.40;24.90;;;22.10;92.80;;;;;;6221347;23;20426;-85
2023/04/28 13:46:51;;;;;;;26.25;24.65;;;22.10;91.90;;;;;;6246238;23;20008;-85
2023/04/28 13:49:18;;;;;;;25.80;24.30;;;21.80;92.50;;;;;;6246620;23;20071;-86
2023/04/28 13:51:45;;;;;;;25.52;24.00;;;21.80;92.20;;;;;;6255725;22;20047;-93
2023/04/28 13:54:11;;;;;;;25.83;24.10;;;21.60;92.70;;;;;;6245549;23;20008;-92
2023/04/28 13:56:38;;;;;;;24.67;23.27;;;21.60;92.40;;;;;;6270087;22;20012;-93
2023/04/28 13:59:05;;;;;;;25.50;24.08;;;21.50;92.80;;;;;;6251482;22;20008;-95
2023/04/28 14:01:32;;;;;;;33.25;31.42;;;21.80;92.90;;;;;;6247718;23;20087;-95
2023/04/28 14:04:49;;;;;;;;;;;;;;;;;;;;;
2023/04/28 14:07:38;;;;;;;25.95;24.45;;;21.80;92.90;;;;;;6255655;23;20467;-93
2023/04/28 14:10:15;;;;;;;26.05;24.45;;;21.80;93.00;;;;;;6254756;23;20008;-95
2023/04/28 14:12:42;;;;;;;25.75;24.25;;;21.80;92.70;;;;;;6257344;23;20011;-94
2023/04/28 14:15:10;;;;;;;25.52;23.83;;;21.60;92.50;;;;;;6244069;22;20019;-95
2023/04/28 14:17:43;;;;;;;25.23;23.65;;;21.50;93.20;;;;;;6224300;22;20004;-96
2023/04/28 14:20:10;;;;;;;25.88;23.88;;;21.50;93.30;;;;;;6225870;22;20031;-94
2023/04/28 14:22:40;;;;;;;24.67;23.20;;;21.70;92.90;;;;;;6229640;22;20082;-96
2023/04/28 14:34:03;;;;;;;;;;;;;;;;;;;;;
2023/04/28 14:37:01;;;;;;;24.90;23.52;;;21.60;93.20;;;;;;6241415;23;20014;-93
2023/04/28 14:39:27;;;;;;;24.80;23.20;;;21.50;93.20;;;;;;6195625;23;20030;-92
2023/04/28 14:42:10;;;;;;;24.92;23.23;;;21.60;93.60;;;;;;6200120;23;20012;-93
2023/04/28 14:44:37;;;;;;;24.65;23.27;;;21.70;93.30;;;;;;6198845;23;20036;-92
2023/04/28 15:04:45;;;;;;;24.95;23.35;;;21.90;95.90;;;;;;6256461;23;19921;-93
2023/04/28 15:07:12;;;;;;;24.92;23.23;;;21.60;95.80;;;;;;6248725;23;20053;-92
2023/04/28 15:09:39;;;;;;;26.00;24.27;;;21.60;95.90;;;;;;6197179;23;20015;-90
2023/04/28 15:12:05;;;;;;;24.90;23.40;;;21.60;95.20;;;;;;6197993;23;20004;-93
2023/04/28 15:14:32;;;;;;;24.90;23.40;;;21.50;95.60;;;;;;6197328;23;20020;-94
2023/04/28 15:16:59;;;;;;;25.02;23.35;;;21.30;95.30;;;;;;6226200;22;20030;-92
2023/04/28 15:19:25;;;;;;;24.80;23.08;;;21.10;95.80;;;;;;6227084;22;20011;-92
2023/04/28 15:22:14;;;;;;;25.20;23.40;;;21.10;95.70;;;;;;6227713;22;20019;-95
2023/04/28 15:24:50;;;;;;;24.65;23.13;;;21.10;95.60;;;;;;6229738;22;20004;-95
2023/04/28 15:27:19;;;;;;;24.85;23.45;;;21.30;95.90;;;;;;6233968;22;20008;-95
2023/04/28 15:29:45;;;;;;;25.35;23.48;;;21.10;95.20;;;;;;6227142;22;20008;-94
2023/04/28 15:32:13;;;;;;;25.20;23.70;;;21.00;95.00;;;;;;6226941;22;20008;-93
2023/04/28 15:34:39;;;;;;;24.27;22.98;;;20.90;94.90;;;;;;6226492;22;20014;-94
2023/04/28 15:37:39;;;;;;;25.10;23.23;;;20.70;95.60;;;;;;6226511;22;20043;-93
2023/04/28 15:40:07;;;;;;;25.08;23.60;;;20.60;95.70;;;;;;6226677;22;20008;-93
2023/04/28 15:42:34;;;;;;;25.95;24.08;;;20.60;94.00;;;;;;6226802;22;20006;-93
2023/04/28 15:45:01;;;;;;;24.73;23.42;;;20.50;94.20;;;;;;6226942;22;20008;-96
2023/04/28 15:47:31;;;;;;;25.27;23.65;;;20.50;94.20;;;;;;6227422;22;20006;-93
2023/04/28 15:49:58;;;;;;;24.70;23.30;;;20.50;94.40;;;;;;6226614;22;20491;-93
2023/04/28 15:52:25;;;;;;;24.48;23.08;;;20.50;94.70;;;;;;6226959;22;20004;-91
2023/04/28 15:54:53;;;;;;;24.85;23.45;;;20.40;93.70;;;;;;6226392;22;20031;-94
2023/04/28 15:57:20;;;;;;;25.35;23.63;;;20.40;94.30;;;;;;6226844;22;20053;-94
2023/04/28 16:29:24;;;;;;;25.48;23.85;;;19.50;92.70;;;;;;6279809;22;20081;-92
2023/04/28 16:32:15;;;;;;;25.80;24.25;;;19.50;92.80;;;;;;6251880;22;20013;-93
2023/04/28 16:34:42;;;;;;;26.02;24.40;;;19.40;92.90;;;;;;6251978;22;20019;-94
2023/04/28 16:37:11;;;;;;;25.67;24.17;;;19.40;92.60;;;;;;6252125;22;20008;-94
2023/04/28 16:39:38;;;;;;;25.50;24.08;;;19.30;92.50;;;;;;6280121;22;20397;-91
2023/04/28 16:42:04;;;;;;;25.27;23.63;;;19.30;92.80;;;;;;6251991;22;20037;-92
2023/04/28 16:44:31;;;;;;;26.00;23.85;;;19.20;92.60;;;;;;6251917;22;20011;-92
2023/04/28 16:47:01;;;;;;;26.73;25.13;;;19.10;94.20;;;;;;6251864;22;20007;-90
2023/04/28 16:49:28;;;;;;;25.08;23.73;;;18.90;92.90;;;;;;6258462;22;20014;-90
2023/04/28 16:52:00;;;;;;;25.08;23.77;;;18.90;92.80;;;;;;6264526;22;20003;-92
2023/04/28 16:54:27;;;;;;;26.35;24.73;;;18.90;92.80;;;;;;6252075;22;20034;-90
2023/04/28 16:56:55;;;;;;;25.05;23.60;;;18.90;93.20;;;;;;6251937;22;20008;-93
2023/04/28 16:59:21;;;;;;;26.40;24.88;;;18.90;93.90;;;;;;6251825;22;20004;-90
2023/04/28 17:01:53;;;;;;;26.13;24.63;;;18.90;93.40;;;;;;6260489;22;20345;-92
2023/04/28 17:04:22;;;;;;;26.95;25.38;;;18.90;93.70;;;;;;6276635;22;20008;-93
2023/04/28 17:06:53;;;;;;;25.10;23.77;;;18.80;94.40;;;;;;6259112;22;20038;-91
2023/04/28 17:09:21;;;;;;;25.95;24.30;;;18.60;95.30;;;;;;6251238;22;20028;-92
2023/04/28 17:11:51;;;;;;;27.33;25.35;;;18.50;96.00;;;;;;6252248;22;20008;-92
2023/04/28 17:14:18;;;;;;;27.52;25.80;;;18.40;96.50;;;;;;6252527;22;20007;-93
2023/04/28 17:17:08;;;;;;;28.73;26.92;;;18.30;96.90;;;;;;6252585;22;20394;-93
2023/04/28 17:19:35;;;;;;;26.15;24.70;;;18.20;97.40;;;;;;6251344;22;20396;-93
2023/04/28 17:22:02;;;;;;;27.10;25.40;;;18.10;97.90;;;;;;6252019;22;20082;-91
2023/04/28 17:24:29;;;;;;;25.95;24.27;;;18.00;98.70;;;;;;6251101;22;20004;-91
2023/04/28 17:26:55;;;;;;;25.30;23.60;;;17.90;99.20;;;;;;6251486;22;20016;-93
2023/04/28 17:29:22;;;;;;;26.48;24.77;;;17.70;99.80;;;;;;6251818;22;20012;-91
2023/04/28 17:31:48;;;;;;;25.15;23.48;;;17.60;99.90;;;;;;6253176;22;20413;-90
2023/04/28 17:34:15;;;;;;;25.23;23.17;;;17.50;99.90;;;;;;6252758;22;20015;-93
2023/04/28 17:36:42;;;;;;;25.35;23.63;;;17.30;99.90;;;;;;6251426;22;20008;-92
2023/04/28 17:39:24;;;;;;;23.80;22.20;;;17.10;99.90;;;;;;6251293;22;20381;-93
2023/04/28 17:41:51;;;;;;;24.48;22.98;;;17.00;99.90;;;;;;6252845;22;20043;-93
2023/04/28 17:45:06;;;;;;;;;;;;;;;;;;;;;
2023/04/28 17:50:15;;;;;;;23.85;22.45;;;16.50;99.90;;;;;;6247291;22;20024;-93
2023/04/28 17:53:41;;;;;;;23.30;21.58;;;16.20;99.90;;;;;;6255344;23;20081;-93
2023/04/28 17:56:53;;;;;;;21.08;19.77;;;16.00;99.90;;;;;;6078713;23;20089;-92
2023/04/28 18:06:43;;;;;;;20.52;19.00;;;15.70;99.90;;;;;;6230853;22;20481;-92
2023/04/28 18:16:37;;;;;;;20.35;18.63;;;15.50;99.90;;;;;;6290627;22;20029;-93
2023/04/28 18:19:50;;;;;;;22.83;20.75;;;15.40;99.90;;;;;;6225458;23;20015;-94
2023/04/28 18:22:26;;;;;;;25.73;23.10;;;15.30;99.90;;;;;;6246579;22;20019;-94
2023/04/28 18:25:22;;;;;;;23.80;21.52;;;15.20;99.90;;;;;;6224913;23;20004;-93
2023/04/28 18:45:13;;;;;;;23.83;21.85;;;15.10;99.90;;;;;;6243837;22;20058;-91
2023/04/28 18:47:40;;;;;;;24.92;22.48;;;15.10;99.90;;;;;;6064788;22;20549;-91
2023/04/28 18:50:07;;;;;;;25.63;23.17;;;15.10;99.90;;;;;;6237899;22;20004;-89
2023/04/28 18:52:33;;;;;;;26.15;23.42;;;15.10;99.90;;;;;;6234142;22;20055;-93
2023/04/28 18:55:00;;;;;;;29.80;26.58;;;15.20;99.90;;;;;;6216548;22;20031;-93
2023/04/28 18:57:26;;;;;;;36.50;28.52;;;15.30;99.90;;;;;;6228561;22;20050;-93
2023/04/28 18:59:59;;;;;;;33.08;27.42;;;15.30;99.90;;;;;;6230538;22;20007;-92
2023/04/28 19:02:25;;;;;;;27.77;24.00;;;15.30;99.90;;;;;;6236689;22;20007;-91
2023/04/28 19:04:52;;;;;;;27.30;24.48;;;15.30;99.90;;;;;;6230069;22;20030;-93
2023/04/28 19:07:18;;;;;;;29.40;25.15;;;15.30;99.90;;;;;;6233658;22;20429;-91
2023/04/28 19:09:45;;;;;;;26.30;22.52;;;15.20;99.90;;;;;;6237605;22;20026;-93
2023/04/28 19:12:11;;;;;;;25.25;22.77;;;15.20;99.90;;;;;;6232756;22;20012;-91
2023/04/28 19:14:39;;;;;;;32.50;25.85;;;15.10;99.90;;;;;;6230421;22;20011;-93
2023/04/28 19:17:05;;;;;;;27.00;22.25;;;15.00;99.90;;;;;;6253868;22;20038;-91
2023/04/28 19:19:32;;;;;;;25.02;22.23;;;14.90;99.90;;;;;;6228801;22;19996;-93
2023/04/28 19:21:58;;;;;;;23.75;21.45;;;14.80;99.90;;;;;;6233198;22;20020;-92
2023/04/28 19:24:28;;;;;;;25.55;22.85;;;14.70;99.90;;;;;;6229000;22;20447;-92
2023/04/28 19:26:56;;;;;;;25.10;21.83;;;14.50;99.90;;;;;;6229058;22;20027;-92
2023/04/28 19:29:45;;;;;;;26.75;22.13;;;14.30;99.90;;;;;;6235425;22;20030;-93
2023/04/28 19:32:12;;;;;;;25.52;20.50;;;14.20;99.90;;;;;;6229086;22;20004;-92
2023/04/28 19:34:38;;;;;;;21.67;19.58;;;14.10;99.90;;;;;;6226521;22;20000;-92
2023/04/28 19:37:08;;;;;;;22.42;20.02;;;14.00;99.90;;;;;;6228477;22;20322;-90
2023/04/28 19:39:36;;;;;;;21.75;19.50;;;14.00;99.90;;;;;;6228610;22;20011;-93
2023/04/28 19:42:04;;;;;;;22.65;19.15;;;14.00;99.90;;;;;;6237554;22;20011;-91
2023/04/28 19:44:32;;;;;;;21.77;19.45;;;14.00;99.90;;;;;;6254065;22;20012;-92
2023/04/28 19:47:06;;;;;;;20.25;17.92;;;14.00;99.90;;;;;;6233870;22;20414;-92
2023/04/28 19:49:33;;;;;;;22.80;17.80;;;14.10;99.90;;;;;;6260196;22;20004;-92
2023/04/28 19:52:00;;;;;;;20.95;17.10;;;14.10;99.90;;;;;;6228858;22;20329;-90
2023/04/28 19:54:27;;;;;;;21.58;16.77;;;14.10;99.90;;;;;;6257926;22;20007;-92
2023/04/28 19:56:56;;;;;;;18.73;16.75;;;14.00;99.90;;;;;;6234430;22;20019;-93